Time;durP1;ratioP1;P1;durP2;ratioP2;P2;SDS_P1;SDS_P2;PMS_P1;PMS_P2;Temp;Humidity;BMP_temperature;BMP_pressure;BME280_temperature;BME280_humidity;BME280_pressure;Samples;Min_cycle;Max_cycle;Signal;HPM_P1;HPM_P2
2022/01/26 00:07:07;;;;;;;91.90;51.47;;;3.80;99.90;;;;;;5062540;28;20040;-70
2022/01/26 00:09:32;;;;;;;91.43;49.83;;;3.80;99.90;;;;;;5081909;28;20122;-71
2022/01/26 00:11:58;;;;;;;89.57;48.88;;;3.80;99.90;;;;;;5083759;28;20437;-71
2022/01/26 00:14:24;;;;;;;90.97;49.03;;;3.80;99.90;;;;;;5064056;28;20057;-71
2022/01/26 00:16:50;;;;;;;89.53;48.45;;;3.80;99.90;;;;;;5063449;28;20056;-71
2022/01/26 00:19:22;;;;;;;91.22;49.78;;;3.80;99.90;;;;;;5060712;28;20511;-71
2022/01/26 00:21:53;;;;;;;96.75;50.50;;;3.80;99.90;;;;;;5060581;28;20049;-71
2022/01/26 00:24:51;;;;;;;99.68;51.28;;;3.70;99.90;;;;;;5062995;28;20479;-70
2022/01/26 00:29:37;;;;;;;90.50;49.85;;;3.70;99.90;;;;;;5059693;28;20094;-70
2022/01/26 00:40:33;;;;;;;98.00;52.13;;;3.60;99.90;;;;;;5067077;28;20135;-71
2022/01/26 00:43:13;;;;;;;96.93;51.38;;;3.60;99.90;;;;;;5098055;28;20066;-72
2022/01/26 00:45:40;;;;;;;100.35;50.22;;;3.60;99.90;;;;;;5064877;28;20040;-71
2022/01/26 00:48:08;;;;;;;97.85;52.17;;;3.70;99.90;;;;;;5059104;28;20045;-71
2022/01/26 00:50:35;;;;;;;101.07;52.85;;;3.70;99.90;;;;;;5068857;28;20109;-71
2022/01/26 00:53:01;;;;;;;106.85;52.60;;;3.60;99.90;;;;;;5071105;28;20044;-70
2022/01/26 00:55:27;;;;;;;102.88;53.42;;;3.60;99.90;;;;;;5101416;28;20032;-71
2022/01/26 00:57:53;;;;;;;97.72;50.78;;;3.60;99.90;;;;;;5063323;28;20106;-71
2022/01/26 01:00:25;;;;;;;97.20;51.85;;;3.60;99.90;;;;;;5089344;28;20040;-71
2022/01/26 01:02:52;;;;;;;104.90;52.85;;;3.70;99.90;;;;;;5067778;28;20093;-71
2022/01/26 01:05:26;;;;;;;97.47;50.10;;;3.70;99.90;;;;;;5069572;28;20427;-71
2022/01/26 01:07:58;;;;;;;99.60;51.70;;;3.70;99.90;;;;;;5067601;28;20049;-72
2022/01/26 01:10:25;;;;;;;101.10;51.90;;;3.70;99.90;;;;;;5065898;28;20052;-71
2022/01/26 01:12:55;;;;;;;99.63;50.25;;;3.70;99.90;;;;;;5063690;28;20384;-71
2022/01/26 01:15:23;;;;;;;101.72;52.80;;;3.70;99.90;;;;;;5057553;28;20105;-72
2022/01/26 01:17:53;;;;;;;100.00;52.15;;;3.70;99.90;;;;;;5057656;28;20099;-71
2022/01/26 01:30:44;;;;;;;98.35;53.30;;;3.70;99.90;;;;;;5056168;28;20112;-71
2022/01/26 01:33:15;;;;;;;101.20;52.70;;;3.70;99.90;;;;;;5066220;28;20408;-71
2022/01/26 01:35:43;;;;;;;94.90;49.00;;;3.70;99.90;;;;;;5065751;28;20045;-70
2022/01/26 01:38:13;;;;;;;94.35;50.28;;;3.70;99.90;;;;;;5099331;28;20102;-71
2022/01/26 01:40:40;;;;;;;97.10;50.53;;;3.70;99.90;;;;;;5089870;28;20397;-72
2022/01/26 01:43:07;;;;;;;98.68;52.70;;;3.70;99.90;;;;;;5064728;28;20435;-70
2022/01/26 01:45:35;;;;;;;96.97;51.15;;;3.70;99.90;;;;;;5054202;28;20071;-71
2022/01/26 01:48:01;;;;;;;99.38;52.42;;;3.70;99.90;;;;;;5066420;28;20048;-71
2022/01/26 01:50:27;;;;;;;102.03;52.70;;;3.70;99.90;;;;;;5061187;28;20045;-71
2022/01/26 01:53:00;;;;;;;97.22;51.63;;;3.70;99.90;;;;;;5067151;28;20076;-71
2022/01/26 01:55:28;;;;;;;96.63;49.97;;;3.70;99.90;;;;;;5049616;28;20063;-71
2022/01/26 01:57:59;;;;;;;98.32;52.45;;;3.70;99.90;;;;;;5054793;28;20048;-71
2022/01/26 02:00:25;;;;;;;92.28;47.90;;;3.70;99.90;;;;;;5054435;28;20135;-71
2022/01/26 02:02:51;;;;;;;95.63;50.40;;;3.70;99.90;;;;;;5091478;28;20045;-71
2022/01/26 02:05:17;;;;;;;92.60;49.38;;;3.70;99.90;;;;;;5057748;28;20151;-71
2022/01/26 02:07:43;;;;;;;98.32;51.08;;;3.70;99.90;;;;;;5064620;28;20459;-71
2022/01/26 02:10:10;;;;;;;97.68;50.35;;;3.70;99.90;;;;;;5068750;28;20076;-71
2022/01/26 02:12:39;;;;;;;97.75;50.50;;;3.70;99.90;;;;;;5066572;28;20442;-71
2022/01/26 02:15:12;;;;;;;96.40;48.88;;;3.60;99.90;;;;;;5053149;28;20055;-71
2022/01/26 02:18:07;;;;;;;97.65;51.42;;;3.60;99.90;;;;;;5061877;28;20057;-71
2022/01/26 02:21:11;;;;;;;94.22;48.83;;;3.60;99.90;;;;;;5065794;28;20056;-71
2022/01/26 02:56:03;;;;;;;98.03;49.05;;;3.60;99.90;;;;;;5065892;28;20195;-72
2022/01/26 02:58:51;;;;;;;99.28;50.55;;;3.50;99.90;;;;;;5066147;28;20048;-71
2022/01/26 03:03:57;;;;;;;97.60;50.47;;;3.60;99.90;;;;;;5068381;28;20060;-71
2022/01/26 03:06:31;;;;;;;99.18;49.83;;;3.50;99.90;;;;;;5064003;28;20159;-72
2022/01/26 03:09:02;;;;;;;96.35;47.75;;;3.50;99.90;;;;;;5062948;28;20095;-71
2022/01/26 03:11:31;;;;;;;93.05;46.55;;;3.50;99.90;;;;;;5063933;28;20041;-71
2022/01/26 03:14:07;;;;;;;94.50;47.20;;;3.60;99.90;;;;;;5063564;28;20044;-71
2022/01/26 03:16:39;;;;;;;90.68;46.25;;;3.60;99.90;;;;;;5067737;28;20057;-71
2022/01/26 03:21:47;;;;;;;95.43;47.20;;;3.60;99.90;;;;;;5066640;28;20053;-71
2022/01/26 03:29:55;;;;;;;87.07;43.83;;;3.50;99.90;;;;;;5062301;28;20044;-71
2022/01/26 03:35:13;;;;;;;84.25;44.03;;;3.50;99.90;;;;;;5095436;28;20053;-72
2022/01/26 03:37:40;;;;;;;85.72;42.50;;;3.50;99.90;;;;;;5064586;28;20093;-71
2022/01/26 03:40:13;;;;;;;83.80;41.80;;;3.50;99.90;;;;;;5066433;28;20041;-71
2022/01/26 03:42:39;;;;;;;87.10;44.10;;;3.50;99.90;;;;;;5064269;28;20056;-71
2022/01/26 03:45:04;;;;;;;86.68;42.60;;;3.50;99.90;;;;;;5065154;28;20040;-71
2022/01/26 03:47:30;;;;;;;85.68;43.70;;;3.40;99.90;;;;;;5063481;28;20151;-71
2022/01/26 03:49:56;;;;;;;90.43;43.33;;;3.40;99.90;;;;;;5078042;28;20048;-71
2022/01/26 03:52:21;;;;;;;88.95;44.33;;;3.40;99.90;;;;;;5099685;28;20052;-71
2022/01/26 03:54:47;;;;;;;90.60;43.92;;;3.40;99.90;;;;;;5049483;28;20078;-71
2022/01/26 03:57:13;;;;;;;91.93;45.58;;;3.40;99.90;;;;;;5078084;28;20051;-71
2022/01/26 03:59:39;;;;;;;87.30;41.42;;;3.40;99.90;;;;;;5068083;28;20077;-71
2022/01/26 04:02:05;;;;;;;88.55;43.55;;;3.30;99.90;;;;;;5066983;28;20059;-71
2022/01/26 04:04:35;;;;;;;85.85;44.33;;;3.30;99.90;;;;;;5064276;28;20045;-71
2022/01/26 04:07:02;;;;;;;89.57;42.67;;;3.40;99.90;;;;;;5062672;28;20357;-71
2022/01/26 04:09:27;;;;;;;86.05;42.72;;;3.40;99.90;;;;;;5063123;28;20044;-71
2022/01/26 04:11:53;;;;;;;91.82;43.05;;;3.30;99.90;;;;;;5067650;28;20053;-71
2022/01/26 04:14:23;;;;;;;86.78;42.83;;;3.30;99.90;;;;;;5071230;28;20044;-71
2022/01/26 04:16:49;;;;;;;86.68;41.72;;;3.30;99.90;;;;;;5064573;28;20445;-72
2022/01/26 04:19:15;;;;;;;87.40;42.15;;;3.20;99.90;;;;;;5071143;28;20044;-71
2022/01/26 04:27:02;;;;;;;87.45;39.63;;;3.10;99.90;;;;;;5064151;28;20516;-71
2022/01/26 04:29:30;;;;;;;88.82;42.55;;;3.00;99.90;;;;;;5068323;28;20040;-71
2022/01/26 04:31:57;;;;;;;87.03;40.75;;;3.00;99.90;;;;;;5069990;28;20044;-71
2022/01/26 04:34:24;;;;;;;90.35;41.42;;;3.10;99.90;;;;;;5066314;28;20041;-71
2022/01/26 04:37:09;;;;;;;89.90;42.10;;;3.00;99.90;;;;;;5069548;28;20106;-71
2022/01/26 04:39:42;;;;;;;87.13;42.28;;;3.00;99.90;;;;;;5069756;28;20051;-70
2022/01/26 04:42:14;;;;;;;91.15;42.65;;;3.00;99.90;;;;;;5087439;28;20053;-71
2022/01/26 04:44:42;;;;;;;86.25;41.60;;;3.00;99.90;;;;;;5102492;28;20041;-71
2022/01/26 04:47:08;;;;;;;82.80;38.13;;;3.00;99.90;;;;;;5078279;28;20418;-71
2022/01/26 04:49:34;;;;;;;88.68;41.25;;;3.00;99.90;;;;;;5077188;28;20052;-71
2022/01/26 04:52:00;;;;;;;88.15;40.20;;;3.00;99.90;;;;;;5068620;28;20057;-71
2022/01/26 04:54:26;;;;;;;86.43;41.58;;;3.00;99.90;;;;;;5087090;28;20064;-71
2022/01/26 04:56:52;;;;;;;80.97;40.85;;;3.10;99.90;;;;;;5061935;28;20079;-71
2022/01/26 04:59:18;;;;;;;91.88;43.22;;;3.10;99.90;;;;;;5078695;28;20479;-71
2022/01/26 05:01:43;;;;;;;84.70;40.63;;;3.10;99.90;;;;;;5069779;28;20048;-71
2022/01/26 05:04:09;;;;;;;81.22;39.10;;;3.10;99.90;;;;;;5069530;28;20037;-71
2022/01/26 05:06:35;;;;;;;88.72;41.95;;;3.10;99.90;;;;;;5063271;28;20052;-71
2022/01/26 05:09:00;;;;;;;86.97;41.40;;;3.10;99.90;;;;;;5067337;28;20163;-71
2022/01/26 05:11:33;;;;;;;84.10;39.75;;;3.10;99.90;;;;;;5070468;28;20054;-71
2022/01/26 05:13:59;;;;;;;87.53;40.08;;;3.00;99.90;;;;;;5099007;28;20091;-70
2022/01/26 05:16:25;;;;;;;91.18;42.90;;;3.10;99.90;;;;;;5065175;28;20151;-70
2022/01/26 05:18:52;;;;;;;85.45;41.72;;;3.10;99.90;;;;;;5056396;28;20112;-71
2022/01/26 05:21:18;;;;;;;84.85;40.70;;;3.10;99.90;;;;;;5067152;28;20044;-71
2022/01/26 05:23:43;;;;;;;82.57;40.05;;;3.10;99.90;;;;;;5065598;28;20037;-71
2022/01/26 05:26:09;;;;;;;91.88;40.55;;;3.10;99.90;;;;;;5066394;28;20048;-72
2022/01/26 05:28:35;;;;;;;89.30;40.88;;;3.10;99.90;;;;;;5084023;28;20390;-71
2022/01/26 05:31:00;;;;;;;83.15;40.03;;;3.10;99.90;;;;;;5074169;28;20037;-71
2022/01/26 05:33:26;;;;;;;86.88;40.78;;;3.10;99.90;;;;;;5063141;28;20143;-72
2022/01/26 05:35:51;;;;;;;84.13;40.53;;;3.10;99.90;;;;;;5048497;28;20136;-71
2022/01/26 05:38:17;;;;;;;82.45;39.78;;;3.10;99.90;;;;;;5064018;28;20056;-71
2022/01/26 05:40:43;;;;;;;85.38;40.55;;;3.10;99.90;;;;;;5066604;28;20368;-71
2022/01/26 05:43:08;;;;;;;87.72;41.65;;;3.10;99.90;;;;;;5067771;28;20105;-71
2022/01/26 05:45:37;;;;;;;81.47;39.95;;;3.10;99.90;;;;;;5077998;28;20466;-70
2022/01/26 05:48:08;;;;;;;88.53;40.83;;;3.00;99.90;;;;;;5062652;28;20507;-71
2022/01/26 05:50:34;;;;;;;84.00;39.70;;;3.00;99.90;;;;;;5068183;28;20048;-71
2022/01/26 05:53:00;;;;;;;78.38;37.53;;;3.00;99.90;;;;;;5064045;28;20051;-71
2022/01/26 05:55:26;;;;;;;83.38;39.45;;;3.00;99.90;;;;;;5061780;28;20040;-71
2022/01/26 05:57:51;;;;;;;90.18;40.45;;;3.10;99.90;;;;;;5061136;28;20044;-70
2022/01/26 06:00:17;;;;;;;85.55;41.22;;;3.10;99.90;;;;;;5062330;28;20045;-71
2022/01/26 06:02:43;;;;;;;85.88;40.13;;;3.10;99.90;;;;;;5063769;28;20053;-71
2022/01/26 06:05:09;;;;;;;87.05;41.78;;;3.10;99.90;;;;;;5064222;28;20064;-71
2022/01/26 06:07:35;;;;;;;85.78;39.38;;;3.10;99.90;;;;;;5063477;28;20087;-70
2022/01/26 06:10:00;;;;;;;90.47;40.55;;;3.10;99.90;;;;;;5073288;28;20032;-71
2022/01/26 06:12:26;;;;;;;84.15;38.70;;;3.10;99.90;;;;;;5055119;28;20123;-71
2022/01/26 06:14:52;;;;;;;83.10;39.90;;;3.10;99.90;;;;;;5063644;28;20384;-71
2022/01/26 06:17:18;;;;;;;90.30;39.95;;;3.10;99.90;;;;;;5053251;28;20523;-70
2022/01/26 06:19:44;;;;;;;83.65;38.47;;;3.10;99.90;;;;;;5064829;28;20032;-70
2022/01/26 06:22:09;;;;;;;89.07;39.00;;;3.10;99.90;;;;;;5082472;28;20056;-71
2022/01/26 06:24:35;;;;;;;81.05;38.22;;;3.10;99.90;;;;;;5077271;28;20041;-71
2022/01/26 06:27:01;;;;;;;82.20;39.50;;;3.10;99.90;;;;;;5063287;28;20090;-70
2022/01/26 06:29:26;;;;;;;81.78;39.33;;;3.10;99.90;;;;;;5072934;28;20472;-71
2022/01/26 06:31:52;;;;;;;84.90;40.53;;;3.10;99.90;;;;;;5075597;28;20044;-72
2022/01/26 06:34:18;;;;;;;88.05;38.33;;;3.10;99.90;;;;;;5050827;28;20048;-71
2022/01/26 06:36:43;;;;;;;87.38;40.20;;;3.10;99.90;;;;;;5060611;28;20044;-74
2022/01/26 06:39:14;;;;;;;81.00;37.58;;;3.10;99.90;;;;;;5065040;28;20037;-71
2022/01/26 06:41:48;;;;;;;82.10;38.13;;;3.10;99.90;;;;;;5058006;28;20052;-71
2022/01/26 06:44:24;;;;;;;87.70;39.03;;;3.10;99.90;;;;;;5058277;28;20040;-71
2022/01/26 06:47:14;;;;;;;82.60;38.28;;;3.10;99.90;;;;;;5060489;28;20175;-71
2022/01/26 06:49:40;;;;;;;81.50;38.63;;;3.10;99.90;;;;;;5061889;28;20046;-70
2022/01/26 06:52:05;;;;;;;82.07;37.42;;;3.10;99.90;;;;;;5074162;28;20044;-71
2022/01/26 06:54:31;;;;;;;78.55;37.17;;;3.10;99.90;;;;;;5063013;28;20040;-71
2022/01/26 06:56:57;;;;;;;76.63;36.88;;;3.10;99.90;;;;;;5063275;28;20412;-71
2022/01/26 06:59:24;;;;;;;81.97;36.83;;;3.00;99.90;;;;;;5065626;28;20040;-71
2022/01/26 07:01:50;;;;;;;77.93;35.97;;;3.10;99.90;;;;;;5062324;28;20056;-71
2022/01/26 07:04:16;;;;;;;72.55;35.25;;;3.10;99.90;;;;;;5065861;28;20040;-71
2022/01/26 07:06:42;;;;;;;71.40;32.83;;;3.10;99.90;;;;;;5060909;28;20067;-70
2022/01/26 07:09:07;;;;;;;69.65;33.85;;;3.10;99.90;;;;;;5064400;28;20119;-71
2022/01/26 07:11:33;;;;;;;69.75;31.67;;;3.10;99.90;;;;;;5076193;28;20093;-71
2022/01/26 07:14:01;;;;;;;69.43;31.20;;;3.10;99.90;;;;;;5065725;28;20037;-71
2022/01/26 07:21:55;;;;;;;67.32;31.38;;;3.10;99.90;;;;;;5067583;28;20450;-70
2022/01/26 07:24:21;;;;;;;62.97;31.50;;;3.00;99.90;;;;;;5052289;28;20078;-71
2022/01/26 07:26:50;;;;;;;63.25;30.50;;;3.00;99.90;;;;;;5046790;28;20146;-71
2022/01/26 07:29:21;;;;;;;62.22;31.08;;;3.00;99.90;;;;;;5047871;28;20500;-71
2022/01/26 07:31:47;;;;;;;60.28;29.65;;;3.10;99.90;;;;;;5060361;28;20048;-70
2022/01/26 07:34:15;;;;;;;61.08;28.75;;;3.10;99.90;;;;;;5097978;28;20102;-71
2022/01/26 07:36:41;;;;;;;60.92;29.50;;;3.10;99.90;;;;;;5062749;28;20045;-70
2022/01/26 07:39:12;;;;;;;63.35;30.52;;;3.10;99.90;;;;;;5056948;28;20037;-72
2022/01/26 07:41:39;;;;;;;64.85;29.83;;;3.10;99.90;;;;;;5069263;28;20501;-71
2022/01/26 07:44:04;;;;;;;58.55;28.38;;;3.10;99.90;;;;;;5084075;28;20060;-71
2022/01/26 07:46:30;;;;;;;59.92;28.52;;;3.10;99.90;;;;;;5102076;28;20141;-71
2022/01/26 07:48:56;;;;;;;59.63;28.92;;;3.10;99.90;;;;;;5043065;28;20029;-70
2022/01/26 07:51:22;;;;;;;61.65;29.55;;;3.10;99.90;;;;;;5093138;28;20055;-71
2022/01/26 07:53:48;;;;;;;60.00;30.20;;;3.10;99.90;;;;;;5070705;28;20125;-71
2022/01/26 07:56:14;;;;;;;58.70;29.85;;;3.20;99.90;;;;;;5104518;28;20036;-71
2022/01/26 07:58:41;;;;;;;62.40;29.15;;;3.20;99.90;;;;;;5073301;28;20047;-72
2022/01/26 08:01:07;;;;;;;66.13;31.40;;;3.20;99.90;;;;;;5090535;28;20093;-71
2022/01/26 08:03:33;;;;;;;67.13;32.53;;;3.20;99.90;;;;;;5072379;28;20529;-70
2022/01/26 08:06:06;;;;;;;69.22;34.03;;;3.20;99.90;;;;;;5070021;28;20958;-71
2022/01/26 08:08:31;;;;;;;75.75;36.67;;;3.20;99.90;;;;;;5067129;28;20044;-70
2022/01/26 08:10:58;;;;;;;69.68;36.15;;;3.20;99.90;;;;;;5067406;28;20037;-71
2022/01/26 08:13:24;;;;;;;79.15;39.72;;;3.20;99.90;;;;;;5070481;28;20190;-71
2022/01/26 08:15:52;;;;;;;78.45;39.90;;;3.20;99.90;;;;;;5069079;28;20614;-71
2022/01/26 08:18:18;;;;;;;77.15;39.20;;;3.20;99.90;;;;;;5102631;28;20057;-71
2022/01/26 08:20:44;;;;;;;80.50;41.75;;;3.20;99.90;;;;;;5079432;28;20545;-71
2022/01/26 08:23:09;;;;;;;80.28;40.70;;;3.20;99.90;;;;;;5073887;28;20044;-71
2022/01/26 08:25:35;;;;;;;92.38;42.72;;;3.20;99.90;;;;;;5076472;28;20669;-71
2022/01/26 08:28:08;;;;;;;86.53;42.85;;;3.30;99.90;;;;;;5090323;28;20128;-72
2022/01/26 08:30:37;;;;;;;86.07;44.42;;;3.30;99.90;;;;;;5068957;28;20080;-71
2022/01/26 08:33:05;;;;;;;85.85;43.30;;;3.20;99.90;;;;;;5099433;28;20052;-71
2022/01/26 08:35:30;;;;;;;92.72;46.42;;;3.20;99.90;;;;;;5100210;28;20099;-72
2022/01/26 08:37:56;;;;;;;86.93;44.15;;;3.20;99.90;;;;;;5067955;28;20056;-71
2022/01/26 08:40:22;;;;;;;90.65;47.03;;;3.30;99.90;;;;;;5070941;28;20045;-72
2022/01/26 08:42:48;;;;;;;95.30;47.78;;;3.30;99.90;;;;;;5069442;28;20063;-71
2022/01/26 08:45:14;;;;;;;95.57;47.38;;;3.30;99.90;;;;;;5069035;28;20040;-71
2022/01/26 08:47:40;;;;;;;103.05;50.90;;;3.30;99.90;;;;;;5073311;28;20041;-72
2022/01/26 08:50:07;;;;;;;97.57;48.42;;;3.30;99.90;;;;;;5071372;28;20797;-71
2022/01/26 08:52:33;;;;;;;99.87;50.23;;;3.30;99.90;;;;;;5077752;28;20044;-71
2022/01/26 08:54:59;;;;;;;100.50;52.17;;;3.30;99.90;;;;;;5069468;28;20310;-72
2022/01/26 08:57:24;;;;;;;100.85;50.05;;;3.20;99.90;;;;;;5103257;28;20056;-72
2022/01/26 08:59:50;;;;;;;98.43;50.20;;;3.20;99.90;;;;;;5069325;28;20047;-72
2022/01/26 09:02:16;;;;;;;109.35;54.33;;;3.20;99.90;;;;;;5069174;28;20059;-72
2022/01/26 09:04:41;;;;;;;108.07;53.35;;;3.20;99.90;;;;;;5066693;28;20059;-71
2022/01/26 09:07:08;;;;;;;107.10;54.25;;;3.20;99.90;;;;;;5070205;28;20052;-70
2022/01/26 09:09:43;;;;;;;109.50;54.40;;;3.20;99.90;;;;;;5068874;28;20064;-71
2022/01/26 09:12:14;;;;;;;107.95;57.38;;;3.30;99.90;;;;;;5069340;28;20494;-71
2022/01/26 09:14:41;;;;;;;110.40;56.80;;;3.30;99.90;;;;;;5059630;28;20163;-70
2022/01/26 09:17:08;;;;;;;109.22;57.47;;;3.30;99.90;;;;;;5064113;28;20060;-70
2022/01/26 09:19:35;;;;;;;118.68;57.67;;;3.40;99.90;;;;;;5067909;28;20361;-68
2022/01/26 09:22:04;;;;;;;116.20;56.83;;;3.40;99.90;;;;;;5068622;28;20433;-70
2022/01/26 09:24:31;;;;;;;112.43;58.63;;;3.40;99.90;;;;;;5072663;28;20072;-71
2022/01/26 09:26:58;;;;;;;123.25;62.03;;;3.40;99.90;;;;;;5067695;28;20056;-71
2022/01/26 09:29:23;;;;;;;116.63;58.80;;;3.30;99.90;;;;;;5069376;28;20170;-70
2022/01/26 09:31:50;;;;;;;121.70;62.42;;;3.30;99.90;;;;;;5070099;28;20316;-71
2022/01/26 09:34:17;;;;;;;123.13;61.95;;;3.40;99.90;;;;;;5068390;28;20040;-70
2022/01/26 09:36:44;;;;;;;124.05;64.55;;;3.40;99.90;;;;;;5068595;28;20060;-71
2022/01/26 09:39:11;;;;;;;127.60;65.40;;;3.40;99.90;;;;;;5102786;28;20105;-71
2022/01/26 09:41:38;;;;;;;124.00;63.77;;;3.40;99.90;;;;;;5077123;28;20302;-71
2022/01/26 09:44:04;;;;;;;130.77;67.15;;;3.40;99.90;;;;;;5073721;28;20375;-70
2022/01/26 09:46:30;;;;;;;128.93;64.75;;;3.40;99.90;;;;;;5072999;28;20036;-70
2022/01/26 09:48:57;;;;;;;133.48;66.95;;;3.40;99.90;;;;;;5087204;28;20087;-71
2022/01/26 09:51:23;;;;;;;135.02;64.90;;;3.40;99.90;;;;;;5082589;28;20063;-70
2022/01/26 09:54:05;;;;;;;133.30;68.22;;;3.40;99.90;;;;;;5079111;28;20126;-70
2022/01/26 09:56:31;;;;;;;135.50;67.47;;;3.40;99.90;;;;;;5073631;28;20040;-71
2022/01/26 09:58:57;;;;;;;135.35;68.95;;;3.40;99.90;;;;;;5069993;28;20045;-70
2022/01/26 10:01:23;;;;;;;142.18;68.47;;;3.40;99.90;;;;;;5069195;28;20398;-71
2022/01/26 10:03:51;;;;;;;142.57;73.38;;;3.40;99.90;;;;;;5098608;28;20040;-70
2022/01/26 10:06:24;;;;;;;149.10;73.95;;;3.40;99.90;;;;;;5089430;28;20136;-71
2022/01/26 10:17:22;;;;;;;153.13;74.65;;;3.50;99.90;;;;;;5035803;28;20045;-72
2022/01/26 10:19:57;;;;;;;159.40;76.07;;;3.50;99.90;;;;;;5095245;28;20143;-70
2022/01/26 10:22:28;;;;;;;157.07;77.70;;;3.50;99.90;;;;;;5067582;28;20059;-70
2022/01/26 10:25:17;;;;;;;159.35;76.53;;;3.50;99.90;;;;;;5067122;28;20067;-71
2022/01/26 10:27:48;;;;;;;152.18;74.03;;;3.50;99.90;;;;;;5062323;28;20048;-72
2022/01/26 10:30:17;;;;;;;152.73;75.63;;;3.50;99.90;;;;;;5061863;28;20041;-72
2022/01/26 10:32:45;;;;;;;154.95;75.82;;;3.60;99.90;;;;;;5067126;28;20593;-71
2022/01/26 10:35:14;;;;;;;158.60;75.95;;;3.50;99.90;;;;;;5062462;28;20488;-73
2022/01/26 10:38:01;;;;;;;155.23;77.70;;;3.60;99.90;;;;;;5056522;28;20079;-72
2022/01/26 10:40:27;;;;;;;152.80;77.53;;;3.60;99.90;;;;;;5056494;28;20127;-72
2022/01/26 10:43:06;;;;;;;157.38;75.20;;;3.60;99.90;;;;;;5068032;28;20101;-71
2022/01/26 10:48:23;;;;;;;153.75;76.32;;;3.60;99.90;;;;;;5086305;28;20084;-71
2022/01/26 10:51:21;;;;;;;153.45;78.30;;;3.60;99.90;;;;;;5065836;28;20044;-71
2022/01/26 10:53:55;;;;;;;160.10;77.28;;;3.70;99.90;;;;;;5067651;28;20049;-71
2022/01/26 10:56:20;;;;;;;152.48;78.03;;;3.60;99.90;;;;;;5068298;28;20032;-71
2022/01/26 10:58:46;;;;;;;153.00;76.53;;;3.60;99.90;;;;;;5067372;28;20041;-71
2022/01/26 11:01:12;;;;;;;151.88;78.40;;;3.60;99.90;;;;;;5101839;28;20059;-71
2022/01/26 11:03:38;;;;;;;152.25;76.28;;;3.70;99.90;;;;;;5075094;28;20043;-71
2022/01/26 11:06:06;;;;;;;154.90;76.70;;;3.70;99.90;;;;;;5066794;28;20600;-71
2022/01/26 11:08:38;;;;;;;148.85;74.85;;;3.70;99.90;;;;;;5101227;28;20057;-72
2022/01/26 11:11:04;;;;;;;151.60;74.72;;;3.70;99.90;;;;;;5056645;28;20086;-71
2022/01/26 11:13:35;;;;;;;152.02;74.13;;;3.70;99.90;;;;;;5065657;28;20127;-71
2022/01/26 11:16:11;;;;;;;157.05;75.60;;;3.80;99.90;;;;;;5066723;28;20057;-71
2022/01/26 11:18:50;;;;;;;146.38;71.05;;;3.80;99.90;;;;;;5070538;28;20558;-71
2022/01/26 11:21:36;;;;;;;139.77;69.50;;;3.90;99.90;;;;;;5070840;28;20052;-71
2022/01/26 11:24:09;;;;;;;135.63;70.38;;;3.90;99.90;;;;;;5068052;28;20048;-71
2022/01/26 11:26:38;;;;;;;141.93;70.03;;;3.90;99.90;;;;;;5066341;28;20476;-71
2022/01/26 11:29:23;;;;;;;134.68;69.00;;;3.90;99.90;;;;;;5067334;28;20133;-71
2022/01/26 11:32:06;;;;;;;134.40;70.05;;;4.00;99.90;;;;;;5066700;28;20063;-71
2022/01/26 11:34:33;;;;;;;141.70;71.72;;;4.00;99.90;;;;;;5069242;28;20550;-70
2022/01/26 11:37:00;;;;;;;133.18;65.68;;;4.00;99.90;;;;;;5066686;28;20056;-71
2022/01/26 11:42:33;;;;;;;129.82;64.38;;;4.00;99.90;;;;;;5067643;28;20135;-71
2022/01/26 11:45:08;;;;;;;127.20;63.90;;;4.00;99.90;;;;;;5067022;28;20205;-71
2022/01/26 11:47:37;;;;;;;126.85;65.90;;;4.00;99.90;;;;;;5062260;28;20140;-72
2022/01/26 11:50:07;;;;;;;121.25;64.43;;;4.00;99.90;;;;;;5092243;28;20063;-72
2022/01/26 11:52:38;;;;;;;121.05;61.20;;;4.00;99.90;;;;;;5082508;28;20088;-70
2022/01/26 11:55:32;;;;;;;123.65;62.53;;;4.10;99.90;;;;;;5076094;28;20044;-71
2022/01/26 11:58:27;;;;;;;122.72;62.13;;;4.00;99.90;;;;;;5065325;28;20044;-71
2022/01/26 12:01:30;;;;;;;119.97;61.00;;;4.10;99.90;;;;;;5066046;28;20052;-71
2022/01/26 12:04:01;;;;;;;118.57;62.17;;;4.10;99.90;;;;;;5050842;28;20053;-71
2022/01/26 12:06:29;;;;;;;117.28;60.80;;;4.10;99.90;;;;;;5059886;28;20124;-71
2022/01/26 12:08:58;;;;;;;112.70;56.90;;;4.10;99.90;;;;;;5064298;28;20040;-70
2022/01/26 12:11:24;;;;;;;113.38;59.03;;;4.10;99.90;;;;;;5056924;28;20076;-69
2022/01/26 12:14:03;;;;;;;113.20;56.47;;;4.10;99.90;;;;;;5059739;28;21638;-70
2022/01/26 12:16:44;;;;;;;109.50;58.53;;;4.10;99.90;;;;;;5065294;28;20133;-70
2022/01/26 12:38:34;;;;;;;107.88;54.15;;;4.20;99.90;;;;;;5071218;28;20072;-71
2022/01/26 12:43:54;;;;;;;100.65;52.00;;;4.20;99.90;;;;;;5063981;28;20053;-71
2022/01/26 12:46:25;;;;;;;96.70;51.28;;;4.20;99.90;;;;;;5078102;28;20048;-71
2022/01/26 12:49:08;;;;;;;100.80;50.70;;;4.20;99.90;;;;;;5069058;28;20044;-72
2022/01/26 12:51:42;;;;;;;96.03;49.33;;;4.20;99.90;;;;;;5069584;28;20054;-71
2022/01/26 12:54:09;;;;;;;97.25;48.42;;;4.20;99.90;;;;;;5100610;28;20036;-72
2022/01/26 12:56:35;;;;;;;100.75;50.53;;;4.20;99.90;;;;;;5068521;28;20056;-72
2022/01/26 12:59:07;;;;;;;105.00;52.03;;;4.20;99.90;;;;;;5101938;28;20041;-71
2022/01/26 13:01:33;;;;;;;94.45;48.08;;;4.30;99.90;;;;;;5065262;28;20056;-71
2022/01/26 13:04:02;;;;;;;96.20;49.75;;;4.30;99.90;;;;;;5067333;28;20056;-72
2022/01/26 13:06:31;;;;;;;93.78;48.58;;;4.30;99.90;;;;;;5068754;28;20036;-72
2022/01/26 13:08:59;;;;;;;89.85;46.70;;;4.30;99.90;;;;;;5069163;28;20441;-71
2022/01/26 13:11:29;;;;;;;89.28;48.70;;;4.30;99.90;;;;;;5070174;28;20582;-72
2022/01/26 13:14:14;;;;;;;93.70;47.95;;;4.30;99.90;;;;;;5083056;28;20124;-72
2022/01/26 13:16:46;;;;;;;100.15;49.58;;;4.30;99.90;;;;;;5097511;28;20115;-71
2022/01/26 13:22:10;;;;;;;98.18;50.17;;;4.30;99.90;;;;;;5060843;28;20045;-72
2022/01/26 13:35:23;;;;;;;95.18;50.30;;;4.30;99.90;;;;;;5077268;28;20053;-72
2022/01/26 13:38:04;;;;;;;95.80;49.88;;;4.40;99.90;;;;;;5070073;28;20055;-72
2022/01/26 13:48:52;;;;;;;94.30;50.20;;;4.40;99.90;;;;;;5079591;28;20495;-71
2022/01/26 13:52:17;;;;;;;96.63;48.92;;;4.30;99.90;;;;;;5068606;28;20047;-71
2022/01/26 13:54:30;;;;;;;96.20;50.17;;;4.40;99.90;;;;;;5059746;28;20114;-72
2022/01/26 13:57:39;;;;;;;97.18;49.95;;;4.40;99.90;;;;;;5101361;28;20559;-71
2022/01/26 13:59:59;;;;;;;97.40;50.85;;;4.40;99.90;;;;;;5063686;28;20570;-72
2022/01/26 14:02:29;;;;;;;92.00;50.70;;;4.30;99.90;;;;;;5098203;28;20376;-71
2022/01/26 14:04:54;;;;;;;87.78;48.17;;;4.40;99.90;;;;;;5067241;28;20040;-72
2022/01/26 14:07:20;;;;;;;101.20;51.15;;;4.40;99.90;;;;;;5067692;28;20059;-73
2022/01/26 14:09:46;;;;;;;90.85;50.75;;;4.40;99.90;;;;;;5067973;28;20041;-72
2022/01/26 14:12:15;;;;;;;94.60;50.60;;;4.40;99.90;;;;;;5067954;28;20094;-71
2022/01/26 14:14:46;;;;;;;91.45;50.20;;;4.50;99.90;;;;;;5066502;28;20055;-72
2022/01/26 14:17:16;;;;;;;88.53;46.72;;;4.50;99.90;;;;;;5067028;28;20063;-71
2022/01/26 14:22:38;;;;;;;100.53;52.10;;;4.50;99.90;;;;;;5067811;28;20080;-72
2022/01/26 14:27:42;;;;;;;97.93;48.72;;;4.50;99.90;;;;;;5063815;28;20132;-72
2022/01/26 14:35:51;;;;;;;91.93;48.90;;;4.50;99.90;;;;;;5066652;28;20049;-74
2022/01/26 14:50:56;;;;;;;92.25;46.80;;;4.50;99.90;;;;;;5094992;28;20369;-72
2022/01/26 15:40:23;;;;;;;93.00;46.08;;;4.60;99.90;;;;;;5066649;28;20048;-73
2022/01/26 15:43:09;;;;;;;89.60;44.85;;;4.60;99.90;;;;;;5066900;28;20129;-71
2022/01/26 15:51:07;;;;;;;88.03;43.67;;;4.60;99.90;;;;;;5099641;28;20048;-72
2022/01/26 15:59:04;;;;;;;87.70;45.00;;;4.60;99.90;;;;;;5101831;28;20499;-71
2022/01/26 16:53:31;;;;;;;87.65;46.75;;;4.70;99.90;;;;;;5068960;28;20076;-72
2022/01/26 17:46:42;;;;;;;84.47;47.10;;;4.80;99.90;;;;;;5063012;28;20044;-73
2022/01/26 18:07:08;;;;;;;91.22;49.08;;;4.80;99.90;;;;;;5068016;28;20058;-72
2022/01/26 18:38:45;;;;;;;83.32;44.05;;;4.90;99.90;;;;;;5068245;28;20052;-72
2022/01/26 18:49:17;;;;;;;99.45;59.80;;;4.90;99.90;;;;;;5056626;28;20071;-73
2022/01/26 18:51:48;;;;;;;181.52;127.90;;;5.00;99.90;;;;;;5095559;28;20063;-72
2022/01/26 18:54:17;;;;;;;86.65;45.30;;;5.00;99.90;;;;;;5079272;28;20052;-72
2022/01/26 18:56:46;;;;;;;199.68;137.40;;;5.00;99.90;;;;;;5095678;28;20044;-72
2022/01/26 18:59:12;;;;;;;145.13;97.10;;;5.00;99.90;;;;;;5067165;28;20091;-72
2022/01/26 19:01:38;;;;;;;105.80;62.25;;;5.00;99.90;;;;;;5071684;28;20510;-72
2022/01/26 19:04:03;;;;;;;192.40;129.73;;;5.00;99.90;;;;;;5096888;28;20044;-72
2022/01/26 19:06:29;;;;;;;160.43;114.57;;;5.00;99.90;;;;;;5064484;28;20040;-72